createdAt,value
2023-02-16T00:01:52.087Z,61.48
2023-02-16T00:04:27.876Z,61.44
2023-02-16T00:07:01.578Z,61.36
2023-02-16T00:09:35.112Z,61.29
2023-02-16T00:12:34.701Z,61.33
2023-02-16T00:15:19.270Z,61.28
2023-02-16T00:17:53.251Z,61.35
2023-02-16T00:20:27.448Z,61.41
2023-02-16T00:23:00.969Z,61.44
2023-02-16T00:25:34.375Z,61.43
2023-02-16T00:28:10.983Z,61.34
2023-02-16T00:30:44.595Z,61.28
2023-02-16T00:33:21.292Z,61.33
2023-02-16T00:35:54.919Z,61.36
2023-02-16T00:38:28.396Z,61.39
2023-02-16T00:41:02.301Z,61.43
2023-02-16T00:43:35.827Z,61.42
2023-02-16T00:46:10.400Z,61.49
2023-02-16T00:48:45.283Z,61.49
2023-02-16T00:51:25.929Z,61.52
2023-02-16T00:53:54.126Z,61.50
2023-02-16T00:56:27.588Z,61.46
2023-02-16T00:59:02.057Z,61.52
2023-02-16T01:01:37.105Z,61.53
2023-02-16T01:04:16.887Z,61.59
2023-02-16T01:07:07.932Z,61.59
2023-02-16T01:09:59.138Z,61.60
2023-02-16T01:12:35.060Z,61.59
2023-02-16T01:15:14.404Z,61.66
2023-02-16T01:17:46.817Z,61.80
2023-02-16T01:20:22.976Z,61.52
2023-02-16T01:22:56.513Z,61.65
2023-02-16T01:25:29.835Z,61.69
2023-02-16T01:28:03.099Z,61.65
2023-02-16T01:30:36.619Z,61.83
2023-02-16T01:33:14.949Z,61.93
2023-02-16T01:35:48.605Z,61.95
2023-02-16T01:38:24.055Z,61.99
2023-02-16T01:41:04.149Z,62.05
2023-02-16T01:43:42.377Z,62.03
2023-02-16T01:46:18.817Z,61.98
2023-02-16T01:48:52.305Z,61.94
2023-02-16T01:51:28.506Z,61.98
2023-02-16T01:54:04.844Z,61.97
2023-02-16T01:56:41.239Z,61.97
2023-02-16T01:59:18.486Z,62.07
2023-02-16T02:01:56.792Z,62.11
2023-02-16T02:04:51.112Z,62.21
2023-02-16T02:07:27.626Z,62.25
2023-02-16T02:10:05.269Z,62.27
2023-02-16T02:12:44.622Z,62.33
2023-02-16T02:15:20.977Z,62.36
2023-02-16T02:17:54.555Z,62.41
2023-02-16T02:20:50.711Z,62.40
2023-02-16T02:23:40.710Z,62.42
2023-02-16T02:26:53.106Z,62.40
2023-02-16T02:29:58.514Z,62.49
2023-02-16T02:32:42.883Z,62.52
2023-02-16T02:35:24.518Z,62.61
2023-02-16T02:38:01.126Z,62.65
2023-02-16T02:40:38.875Z,62.68
2023-02-16T02:43:17.196Z,62.75
2023-02-16T02:45:53.381Z,62.76
2023-02-16T02:48:28.408Z,62.84
2023-02-16T02:51:21.440Z,62.81
2023-02-16T02:54:16.472Z,62.79
2023-02-16T02:57:10.563Z,62.83
2023-02-16T03:00:04.735Z,62.90
2023-02-16T03:02:40.079Z,62.94
2023-02-16T03:05:16.542Z,62.97
2023-02-16T03:07:52.567Z,63.08
2023-02-16T03:10:45.476Z,63.14
2023-02-16T03:13:21.949Z,63.17
2023-02-16T03:15:57.549Z,63.09
2023-02-16T03:18:50.444Z,63.16
2023-02-16T03:21:42.283Z,63.15
2023-02-16T03:24:36.326Z,63.11
2023-02-16T03:27:29.115Z,63.14
2023-02-16T03:30:05.115Z,63.19
2023-02-16T03:32:39.143Z,63.25
2023-02-16T03:35:13.172Z,63.33
2023-02-16T03:37:47.078Z,63.37
2023-02-16T03:40:30.155Z,63.28
2023-02-16T03:43:05.796Z,63.22
2023-02-16T03:45:41.659Z,63.23
2023-02-16T03:48:15.427Z,63.24
2023-02-16T03:50:48.943Z,63.29
2023-02-16T03:53:22.650Z,63.33
2023-02-16T03:55:56.275Z,63.34
2023-02-16T03:58:29.703Z,63.47
2023-02-16T04:01:03.544Z,63.48
2023-02-16T04:03:37.240Z,63.48
2023-02-16T04:06:11.107Z,63.54
2023-02-16T04:08:44.929Z,63.56
2023-02-16T04:11:40.478Z,63.56
2023-02-16T04:14:14.175Z,63.54
2023-02-16T04:16:47.726Z,63.57
2023-02-16T04:19:21.469Z,63.66
2023-02-16T04:21:54.944Z,63.75
2023-02-16T04:24:28.388Z,63.68
2023-02-16T04:27:01.707Z,63.64
2023-02-16T04:29:36.877Z,63.61
2023-02-16T04:32:10.784Z,63.60
2023-02-16T04:34:44.286Z,63.59
2023-02-16T04:37:17.703Z,63.52
2023-02-16T04:39:51.109Z,63.52
2023-02-16T04:42:24.675Z,63.51
2023-02-16T04:44:58.112Z,63.57
2023-02-16T04:47:31.470Z,63.66
2023-02-16T04:50:04.908Z,63.67
2023-02-16T04:52:39.173Z,63.73
2023-02-16T04:55:12.768Z,63.70
2023-02-16T04:57:46.750Z,63.76
2023-02-16T05:00:22.061Z,63.85
2023-02-16T05:02:55.476Z,63.86
2023-02-16T05:05:28.843Z,63.87
2023-02-16T05:08:02.607Z,63.92
2023-02-16T05:10:35.730Z,63.98
2023-02-16T05:13:28.341Z,64.02
2023-02-16T05:16:02.095Z,64.09
2023-02-16T05:18:36.035Z,64.13
2023-02-16T05:21:27.279Z,64.21
2023-02-16T05:24:01.449Z,64.33
2023-02-16T05:26:35.672Z,64.28
2023-02-16T05:29:09.749Z,64.42
2023-02-16T05:31:43.238Z,64.41
2023-02-16T05:34:16.924Z,64.48
2023-02-16T05:36:50.437Z,64.50
2023-02-16T05:39:24.649Z,64.48
2023-02-16T05:41:58.161Z,64.57
2023-02-16T05:44:31.313Z,64.61
2023-02-16T05:47:04.937Z,64.57
2023-02-16T05:49:38.560Z,64.55
2023-02-16T05:52:12.250Z,64.54
2023-02-16T05:54:45.371Z,64.59
2023-02-16T05:57:18.862Z,64.64
2023-02-16T05:59:54.716Z,64.58
2023-02-16T06:02:28.246Z,64.65
2023-02-16T06:05:01.821Z,64.61
2023-02-16T06:07:35.603Z,64.71
2023-02-16T06:10:10.926Z,64.68
2023-02-16T06:12:44.988Z,64.70
2023-02-16T06:15:18.883Z,64.73
2023-02-16T06:17:52.598Z,64.71
2023-02-16T06:20:26.185Z,64.73
2023-02-16T06:22:59.691Z,64.78
2023-02-16T06:25:32.883Z,64.78
2023-02-16T06:28:06.696Z,64.78
2023-02-16T06:30:40.222Z,64.85
2023-02-16T06:33:14.807Z,64.86
2023-02-16T06:35:48.388Z,64.68
2023-02-16T06:38:21.855Z,64.61
2023-02-16T06:40:55.854Z,64.47
2023-02-16T06:43:30.889Z,64.45
2023-02-16T06:46:04.916Z,64.33
2023-02-16T06:48:38.327Z,64.25
2023-02-16T06:51:11.615Z,64.25
2023-02-16T06:53:46.840Z,64.14
2023-02-16T06:56:20.232Z,64.27
2023-02-16T06:58:53.669Z,64.22
2023-02-16T07:01:27.327Z,64.26
2023-02-16T07:04:01.190Z,64.17
2023-02-16T07:06:35.215Z,64.04
2023-02-16T07:09:10.636Z,63.81
2023-02-16T07:11:44.232Z,63.72
2023-02-16T07:14:17.703Z,63.86
2023-02-16T07:16:53.422Z,63.83
2023-02-16T07:19:27.229Z,63.90
2023-02-16T07:22:00.791Z,63.84
2023-02-16T07:24:34.627Z,63.81
2023-02-16T07:27:08.788Z,63.66
2023-02-16T07:29:42.407Z,63.63
2023-02-16T07:32:15.880Z,63.69
2023-02-16T07:34:49.751Z,63.49
2023-02-16T07:37:23.401Z,63.19
2023-02-16T07:39:56.766Z,62.95
2023-02-16T07:42:33.876Z,62.57
2023-02-16T07:45:10.752Z,62.23
2023-02-16T07:47:44.226Z,62.08
2023-02-16T07:50:17.761Z,61.92
2023-02-16T07:52:51.595Z,61.92
2023-02-16T07:55:24.981Z,62.02
2023-02-16T07:57:58.604Z,62.08
2023-02-16T08:00:32.124Z,62.01
2023-02-16T08:03:06.127Z,61.98
2023-02-16T08:05:39.448Z,62.14
2023-02-16T08:08:12.874Z,62.34
2023-02-16T08:10:46.400Z,62.39
2023-02-16T08:13:20.054Z,62.19
2023-02-16T08:15:53.459Z,62.39
2023-02-16T08:18:26.933Z,62.48
2023-02-16T08:21:04.742Z,62.54
2023-02-16T08:23:35.184Z,62.26
2023-02-16T08:26:12.415Z,62.18
2023-02-16T08:28:47.165Z,61.66
2023-02-16T08:31:23.379Z,61.58
2023-02-16T08:33:58.067Z,61.39
2023-02-16T08:36:34.086Z,61.07
2023-02-16T08:39:12.137Z,61.00
2023-02-16T08:41:49.984Z,60.67
2023-02-16T08:44:22.948Z,60.71
2023-02-16T08:46:57.546Z,60.98
2023-02-16T08:49:31.311Z,60.81
2023-02-16T08:52:05.528Z,60.57
2023-02-16T08:54:38.807Z,60.18
2023-02-16T08:57:12.233Z,59.96
2023-02-16T08:59:45.377Z,60.03
2023-02-16T09:02:18.733Z,59.94
2023-02-16T09:04:52.932Z,59.88
2023-02-16T09:07:26.307Z,59.37
2023-02-16T09:09:59.863Z,59.15
2023-02-16T09:12:36.805Z,58.76
2023-02-16T09:15:12.214Z,58.43
2023-02-16T09:17:46.703Z,58.20
2023-02-16T09:20:21.441Z,57.61
2023-02-16T09:22:55.240Z,57.04
2023-02-16T09:25:28.663Z,57.43
2023-02-16T09:28:02.217Z,57.49
2023-02-16T09:30:36.358Z,57.42
2023-02-16T09:33:10.077Z,57.31
2023-02-16T09:35:43.710Z,57.61
2023-02-16T09:38:17.899Z,57.63
2023-02-16T09:40:51.490Z,57.28
2023-02-16T09:43:30.047Z,57.53
2023-02-16T09:46:04.728Z,57.70
2023-02-16T09:48:42.935Z,57.78
2023-02-16T09:51:21.001Z,57.74
2023-02-16T09:53:58.292Z,58.01
2023-02-16T09:56:35.144Z,57.66
2023-02-16T09:59:12.851Z,57.73
2023-02-16T10:01:47.317Z,57.66
2023-02-16T10:04:28.194Z,57.89
2023-02-16T10:07:08.249Z,57.48
2023-02-16T10:09:43.988Z,57.46
2023-02-16T10:12:20.507Z,57.36
2023-02-16T10:14:56.394Z,57.39
2023-02-16T10:17:32.865Z,57.55
2023-02-16T10:20:10.355Z,57.67
2023-02-16T10:22:47.493Z,57.65
2023-02-16T10:25:24.309Z,57.49
2023-02-16T10:28:01.822Z,57.25
2023-02-16T10:30:36.883Z,57.65
2023-02-16T10:33:14.507Z,57.02
2023-02-16T10:35:49.964Z,57.24
2023-02-16T10:38:27.029Z,57.33
2023-02-16T10:41:03.420Z,57.03
2023-02-16T10:43:43.482Z,56.64
2023-02-16T10:46:20.862Z,56.59
2023-02-16T10:48:55.374Z,56.63
2023-02-16T10:51:31.824Z,57.14
2023-02-16T10:54:08.935Z,56.59
2023-02-16T10:56:54.414Z,56.44
2023-02-16T10:59:31.882Z,55.54
2023-02-16T11:02:12.282Z,54.99
2023-02-16T11:04:47.751Z,54.55
2023-02-16T11:07:23.569Z,54.40
2023-02-16T11:10:02.091Z,53.98
2023-02-16T11:12:38.074Z,54.00
2023-02-16T11:15:24.271Z,53.90
2023-02-16T11:18:00.073Z,54.01
2023-02-16T11:20:36.916Z,54.14
2023-02-16T11:23:19.010Z,54.24
2023-02-16T11:25:59.563Z,54.43
2023-02-16T11:28:36.163Z,54.77
2023-02-16T11:31:19.033Z,54.67
2023-02-16T11:34:03.764Z,54.54
2023-02-16T11:36:39.606Z,54.63
2023-02-16T11:39:18.629Z,54.53
2023-02-16T11:41:55.177Z,54.79
2023-02-16T11:44:32.491Z,54.89
2023-02-16T11:47:09.143Z,54.84
2023-02-16T11:49:43.644Z,54.41
2023-02-16T11:55:27.810Z,54.75
2023-02-16T11:58:01.640Z,54.83
2023-02-16T12:00:35.039Z,55.59
2023-02-16T12:03:21.823Z,55.07
2023-02-16T12:06:05.037Z,54.55
2023-02-16T12:08:49.372Z,54.83
2023-02-16T12:11:29.178Z,54.76
2023-02-16T12:14:11.667Z,54.83
2023-02-16T12:19:35.135Z,54.57
2023-02-16T12:22:19.545Z,54.79
2023-02-16T12:24:58.550Z,54.70
2023-02-16T12:27:34.814Z,54.58
2023-02-16T12:30:12.127Z,54.52
2023-02-16T12:32:58.056Z,54.66
2023-02-16T12:35:42.212Z,54.81
2023-02-16T12:38:22.624Z,54.81
2023-02-16T12:40:59.627Z,54.83
2023-02-16T12:43:38.483Z,54.65
2023-02-16T12:46:17.909Z,54.19
2023-02-16T12:48:54.431Z,54.18
2023-02-16T12:51:31.314Z,54.42
2023-02-16T12:54:09.429Z,54.53
2023-02-16T12:56:45.729Z,54.34
2023-02-16T12:59:22.917Z,54.63
2023-02-16T13:01:57.583Z,54.80
2023-02-16T13:04:33.978Z,54.87
2023-02-16T13:07:12.446Z,55.03
2023-02-16T13:09:50.486Z,55.13
2023-02-16T13:12:28.347Z,55.05
2023-02-16T13:15:04.593Z,55.07
2023-02-16T13:17:41.642Z,55.54
2023-02-16T13:20:17.535Z,55.26
2023-02-16T13:23:11.297Z,55.30
2023-02-16T13:26:10.005Z,55.41
2023-02-16T13:28:55.900Z,55.41
2023-02-16T13:31:40.339Z,55.00
2023-02-16T13:34:48.041Z,55.06
2023-02-16T13:37:40.311Z,55.35
2023-02-16T13:40:42.534Z,55.44
2023-02-16T13:43:31.838Z,55.45
2023-02-16T13:46:09.600Z,55.29
2023-02-16T13:48:49.104Z,55.25
2023-02-16T13:51:24.905Z,55.07
2023-02-16T13:54:00.620Z,54.33
2023-02-16T13:56:38.899Z,54.55
2023-02-16T14:00:04.626Z,54.70
2023-02-16T14:02:58.696Z,54.65
2023-02-16T14:05:35.224Z,54.61
2023-02-16T14:08:24.316Z,54.80
2023-02-16T14:11:10.019Z,55.04
2023-02-16T14:13:51.767Z,55.13
2023-02-16T14:16:34.900Z,55.09
2023-02-16T14:19:20.509Z,55.35
2023-02-16T14:21:54.891Z,55.40
2023-02-16T14:24:34.140Z,55.42
2023-02-16T14:27:09.717Z,55.41
2023-02-16T14:29:46.199Z,55.33
2023-02-16T14:32:28.536Z,55.45
2023-02-16T14:35:08.353Z,55.65
2023-02-16T14:37:44.614Z,55.68
2023-02-16T14:40:24.067Z,55.65
2023-02-16T14:43:00.902Z,55.76
2023-02-16T14:46:00.034Z,55.88
2023-02-16T14:49:13.158Z,55.80
2023-02-16T14:55:43.732Z,56.19
2023-02-16T14:58:28.396Z,56.75
2023-02-16T15:01:07.643Z,56.48
2023-02-16T15:03:46.872Z,56.40
2023-02-16T15:06:27.901Z,56.36
2023-02-16T15:09:04.176Z,56.31
2023-02-16T15:11:41.893Z,56.26
2023-02-16T15:14:18.345Z,56.27
2023-02-16T15:16:53.434Z,56.46
2023-02-16T15:19:30.088Z,56.57
2023-02-16T15:22:22.863Z,56.60
2023-02-16T15:25:05.891Z,56.69
2023-02-16T15:27:39.438Z,56.82
2023-02-16T15:30:24.680Z,56.96
2023-02-16T15:33:00.847Z,57.12
2023-02-16T15:35:38.448Z,57.22
2023-02-16T15:38:22.312Z,57.33
2023-02-16T15:40:57.512Z,57.45
2023-02-16T15:43:34.643Z,57.62
2023-02-16T15:46:10.143Z,57.72
2023-02-16T15:48:44.067Z,57.79
2023-02-16T15:51:20.940Z,57.88
2023-02-16T15:53:57.693Z,57.86
2023-02-16T15:56:38.132Z,57.86
2023-02-16T15:59:35.317Z,58.00
2023-02-16T16:02:15.522Z,57.96
2023-02-16T16:04:54.697Z,58.02
2023-02-16T16:07:31.366Z,58.09
2023-02-16T16:10:07.392Z,58.20
2023-02-16T16:12:41.490Z,58.39
2023-02-16T16:15:22.159Z,58.50
2023-02-16T16:17:58.394Z,58.51
2023-02-16T16:23:28.537Z,58.64
2023-02-16T16:26:02.794Z,58.68
2023-02-16T16:28:38.202Z,58.80
2023-02-16T16:31:13.857Z,58.98
2023-02-16T16:33:58.746Z,59.10
2023-02-16T16:36:33.784Z,59.15
2023-02-16T16:39:17.271Z,59.10
2023-02-16T16:42:09.325Z,59.11
2023-02-16T16:44:45.475Z,59.16
2023-02-16T16:47:26.721Z,59.16
2023-02-16T16:50:01.950Z,59.25
2023-02-16T16:52:44.381Z,59.24
2023-02-16T16:55:33.235Z,59.29
2023-02-16T16:58:08.997Z,59.29
2023-02-16T17:00:43.920Z,59.28
2023-02-16T17:03:18.839Z,59.23
2023-02-16T17:05:52.438Z,59.30
2023-02-16T17:08:25.890Z,59.45
2023-02-16T17:10:59.795Z,59.43
2023-02-16T17:13:33.262Z,59.46
2023-02-16T17:16:08.686Z,59.42
2023-02-16T17:18:42.342Z,59.39
2023-02-16T17:21:17.210Z,59.38
2023-02-16T17:23:53.390Z,59.41
2023-02-16T17:26:26.814Z,59.40
2023-02-16T17:29:00.527Z,59.50
2023-02-16T17:31:34.097Z,59.66
2023-02-16T17:34:07.724Z,59.62
2023-02-16T17:36:41.196Z,59.60
2023-02-16T17:39:14.568Z,59.55
2023-02-16T17:41:47.676Z,59.59
2023-02-16T17:44:21.061Z,59.66
2023-02-16T17:46:55.809Z,59.72
2023-02-16T17:49:29.509Z,59.69
2023-02-16T17:52:02.880Z,59.63
2023-02-16T17:54:36.288Z,59.64
2023-02-16T17:57:11.359Z,59.61
2023-02-16T17:59:45.006Z,59.63
2023-02-16T18:02:18.638Z,59.65
2023-02-16T18:04:52.036Z,59.66
2023-02-16T18:07:25.482Z,59.69
2023-02-16T18:09:59.238Z,59.65
2023-02-16T18:12:34.333Z,59.74
2023-02-16T18:15:09.192Z,59.87
2023-02-16T18:17:42.892Z,59.96
2023-02-16T18:20:19.788Z,59.90
2023-02-16T18:22:53.146Z,59.91
2023-02-16T18:25:27.176Z,60.06
2023-02-16T18:28:01.177Z,60.29
2023-02-16T18:30:34.857Z,60.54
2023-02-16T18:33:08.626Z,60.68
2023-02-16T18:35:42.894Z,60.71
2023-02-16T18:38:16.641Z,60.73
2023-02-16T18:40:50.402Z,60.98
2023-02-16T18:43:24.422Z,61.07
2023-02-16T18:45:58.263Z,61.27
2023-02-16T18:48:31.743Z,61.35
2023-02-16T18:51:09.156Z,61.29
2023-02-16T18:53:42.532Z,61.26
2023-02-16T18:56:16.438Z,61.37
2023-02-16T18:58:49.945Z,61.59
2023-02-16T19:01:30.187Z,61.90
2023-02-16T19:04:05.446Z,61.99
2023-02-16T19:06:39.011Z,62.11
2023-02-16T19:09:12.343Z,62.52
2023-02-16T19:11:46.226Z,62.61
2023-02-16T19:14:19.853Z,62.61
2023-02-16T19:16:53.320Z,62.60
2023-02-16T19:19:26.552Z,62.53
2023-02-16T19:21:59.899Z,62.44
2023-02-16T19:24:35.148Z,62.34
2023-02-16T19:27:08.651Z,62.20
2023-02-16T19:29:42.751Z,61.94
2023-02-16T19:32:16.038Z,61.99
2023-02-16T19:34:49.563Z,61.79
2023-02-16T19:37:22.864Z,61.82
2023-02-16T19:39:56.640Z,61.76
2023-02-16T19:42:29.993Z,61.79
2023-02-16T19:45:04.066Z,61.61
2023-02-16T19:47:37.280Z,61.53
2023-02-16T19:50:11.984Z,61.33
2023-02-16T19:52:45.356Z,61.17
2023-02-16T19:55:18.900Z,61.05
2023-02-16T19:57:52.210Z,61.21
2023-02-16T20:00:26.259Z,61.24
2023-02-16T20:02:59.975Z,61.29
2023-02-16T20:05:33.649Z,61.12
2023-02-16T20:08:07.474Z,61.09
2023-02-16T20:10:43.997Z,61.25
2023-02-16T20:13:17.687Z,61.26
2023-02-16T20:15:51.185Z,61.16
2023-02-16T20:18:24.752Z,61.05
2023-02-16T20:21:02.196Z,60.98
2023-02-16T20:23:35.558Z,60.83
2023-02-16T20:26:11.384Z,60.62
2023-02-16T20:28:45.244Z,60.46
2023-02-16T20:31:20.874Z,60.36
2023-02-16T20:33:54.627Z,60.21
2023-02-16T20:36:28.532Z,60.22
2023-02-16T20:39:01.938Z,60.28
2023-02-16T20:41:35.661Z,60.29
2023-02-16T20:44:10.230Z,60.33
2023-02-16T20:46:44.038Z,60.49
2023-02-16T20:49:17.448Z,60.54
2023-02-16T20:51:50.827Z,60.51
2023-02-16T20:54:24.081Z,60.59
2023-02-16T20:56:57.540Z,60.50
2023-02-16T20:59:31.508Z,60.40
2023-02-16T21:02:05.287Z,60.30
2023-02-16T21:04:39.741Z,60.36
2023-02-16T21:07:13.057Z,60.25
2023-02-16T21:09:46.614Z,60.20
2023-02-16T21:12:20.052Z,60.16
2023-02-16T21:14:53.479Z,60.07
2023-02-16T21:17:26.871Z,60.04
2023-02-16T21:20:02.161Z,60.02
2023-02-16T21:22:35.734Z,60.02
2023-02-16T21:25:11.185Z,60.06
2023-02-16T21:27:44.540Z,60.20
2023-02-16T21:30:19.011Z,60.33
2023-02-16T21:32:53.549Z,60.45
2023-02-16T21:35:26.979Z,60.45
2023-02-16T21:38:00.535Z,60.49
2023-02-16T21:40:51.774Z,60.54
2023-02-16T21:43:25.402Z,60.58
2023-02-16T21:46:02.706Z,60.54
2023-02-16T21:48:48.683Z,60.50
2023-02-16T21:51:24.916Z,60.51
2023-02-16T21:53:58.627Z,60.43
2023-02-16T21:56:38.123Z,60.52
2023-02-16T21:59:14.063Z,60.51
2023-02-16T22:01:51.329Z,60.61
2023-02-16T22:04:26.454Z,60.67
2023-02-16T22:06:59.664Z,60.61
2023-02-16T22:09:33.233Z,60.64
2023-02-16T22:12:06.925Z,60.72
2023-02-16T22:14:40.265Z,60.80
2023-02-16T22:17:13.634Z,60.84
2023-02-16T22:19:48.626Z,60.76
2023-02-16T22:22:21.713Z,60.75
2023-02-16T22:24:54.954Z,60.72
2023-02-16T22:27:28.319Z,60.63
2023-02-16T22:30:01.555Z,60.57
2023-02-16T22:32:36.468Z,60.45
2023-02-16T22:35:10.798Z,60.47
2023-02-16T22:37:44.354Z,60.51
2023-02-16T22:40:18.233Z,60.35
2023-02-16T22:42:51.283Z,60.36
2023-02-16T22:45:24.981Z,60.28
2023-02-16T22:47:58.759Z,60.32
2023-02-16T22:50:32.320Z,60.34
2023-02-16T22:53:05.891Z,60.28
2023-02-16T22:55:40.704Z,60.27
2023-02-16T22:58:14.176Z,60.40
2023-02-16T23:00:48.933Z,60.51
2023-02-16T23:03:22.533Z,60.66
2023-02-16T23:05:56.443Z,60.61
2023-02-16T23:08:30.017Z,60.54
2023-02-16T23:11:05.899Z,60.50
2023-02-16T23:13:39.731Z,60.50
2023-02-16T23:16:15.725Z,60.51
2023-02-16T23:18:49.267Z,60.43
2023-02-16T23:21:23.850Z,60.25
2023-02-16T23:23:58.222Z,60.13
2023-02-16T23:26:33.811Z,60.16
2023-02-16T23:29:08.200Z,60.43
2023-02-16T23:31:44.505Z,60.46
2023-02-16T23:34:18.611Z,60.31
2023-02-16T23:36:51.992Z,60.32
2023-02-16T23:39:25.655Z,60.44
2023-02-16T23:41:59.361Z,60.43
2023-02-16T23:44:32.795Z,60.41
2023-02-16T23:47:06.457Z,60.34
2023-02-16T23:49:40.014Z,60.34
2023-02-16T23:52:13.482Z,60.45
2023-02-16T23:54:47.055Z,60.45
2023-02-16T23:57:20.692Z,60.54
2023-02-16T23:59:54.016Z,60.63
